Terminal Aerodrome Forecast
Issued by NWS

Home | Current Version | Previous Version | Text Only | Print | Product List | Glossary On
Versions: 1 2 3 4 5 6 7 8 9 10 11 12 13 14
000
FTUS41 KBTV 022329
TAFMSS
TAF
KMSS 022329Z 0300/0324 21008G15KT P6SM SCT200
     FM030300 21009KT P6SM VCSH FEW050 BKN100
      TEMPO 0303/0305 5SM -SHRA BKN050
     FM030500 21014KT P6SM VCSH FEW050 BKN090 WS020/23040KT
     FM031200 21016G25KT P6SM VCSH BKN080
     FM031600 22017G30KT P6SM -SHRA BKN040 BKN080
     FM032000 22012G22KT P6SM VCSH BKN250=

USA.gov is the U.S. government's official web portal to all federal, state and local government web resources and services.